CheckWX is a tool to help pilots better visualize weather data.  It is not intended as a substitute for an official pre-flight weather briefing.

01:09:36 UTC

KIFP METAR
Laughlin / Bullhead International Airport
Bullhead City, Arizona, USA
Current

20 mins ago

KIFP 200050Z AUTO 18012G21KT 10SM CLR 42/M07 A2965 RMK AO2
Observed
Jul-20 @ 00:50 UTC
Wind
  • 180° at 12 KTS
  • Gusting to 21 KTS
Visibility
10 SM
Flight Rules
VFR
Cloud Levels
  • Clear skies
Temperature
42°C / 108°F
Dewpoint
-7°C / 19°F
Humidity
4%
Altimeter
29.65" Hg
Pressure
1004.02 hPa
Previous

1 hour ago

KIFP 192352Z 14012KT 20SM FEW100 42/M09 A2966
Observed
Jul-19 @ 23:52 UTC
Wind
  • 140° at 12 KTS
Visibility
20 SM
Flight Rules
VFR
Cloud Levels
  • Few at 10,000' AGL
Temperature
42°C / 108°F
Dewpoint
-9°C / 16°F
Humidity
4%
Altimeter
29.66" Hg
Pressure
1004.42 hPa
Previous

2 hours ago

KIFP 192250Z 17012KT 20SM FEW100 42/M06 A2968
Observed
Jul-19 @ 22:50 UTC
Wind
  • 170° at 12 KTS
Visibility
20 SM
Flight Rules
VFR
Cloud Levels
  • Few at 10,000' AGL
Temperature
42°C / 108°F
Dewpoint
-6°C / 21°F
Humidity
5%
Altimeter
29.68" Hg
Pressure
1005.12 hPa